Time;durP1;ratioP1;P1;durP2;ratioP2;P2;SDS_P1;SDS_P2;PMS_P1;PMS_P2;Temp;Humidity;BMP_temperature;BMP_pressure;BME280_temperature;BME280_humidity;BME280_pressure;Samples;Min_cycle;Max_cycle;Signal;HPM_P1;HPM_P2
2024/01/08 00:00:39;;;;;;;7.43;6.70;;;;;;;0.41;57.61;102930.03;5081447;28;20024;-64
2024/01/08 00:03:04;;;;;;;7.75;6.95;;;;;;;0.38;57.24;102928.44;5073971;28;20112;-63
2024/01/08 00:05:29;;;;;;;6.88;5.97;;;;;;;0.39;57.05;102932.03;5088080;28;20066;-63
2024/01/08 00:07:55;;;;;;;8.10;6.07;;;;;;;0.39;57.15;102927.47;5080734;28;20032;-63
2024/01/08 00:10:20;;;;;;;6.93;6.22;;;;;;;0.34;57.29;102921.50;5082395;28;20082;-64
2024/01/08 00:12:45;;;;;;;6.50;5.90;;;;;;;0.38;57.34;102922.09;5073879;28;20028;-63
2024/01/08 00:15:10;;;;;;;7.28;6.57;;;;;;;0.40;57.36;102928.31;5078111;28;20025;-63
2024/01/08 00:17:36;;;;;;;6.88;6.28;;;;;;;0.41;57.39;102930.91;5072827;28;20097;-63
2024/01/08 00:20:01;;;;;;;7.50;6.80;;;;;;;0.44;57.71;102937.97;5080826;28;20031;-63
2024/01/08 00:22:26;;;;;;;7.20;6.50;;;;;;;0.40;57.18;102931.91;5070493;28;20075;-63
2024/01/08 00:24:52;;;;;;;8.43;6.80;;;;;;;0.37;56.67;102936.78;5079699;28;20480;-63
2024/01/08 00:27:17;;;;;;;7.13;6.47;;;;;;;0.33;57.42;102940.78;5071533;28;20056;-63
2024/01/08 00:29:42;;;;;;;7.68;6.90;;;;;;;0.40;58.03;102937.38;5070516;28;20040;-63
2024/01/08 00:32:08;;;;;;;7.47;6.78;;;;;;;0.47;58.05;102940.41;5071009;28;20463;-63
2024/01/08 00:34:33;;;;;;;7.65;6.85;;;;;;;0.54;58.28;102929.81;5068298;28;20027;-63
2024/01/08 00:36:58;;;;;;;7.20;6.53;;;;;;;0.58;58.10;102929.41;5079961;28;20548;-63
2024/01/08 00:39:24;;;;;;;8.25;7.40;;;;;;;0.63;58.30;102931.72;5078322;28;20420;-63
2024/01/08 00:41:53;;;;;;;11.25;8.98;;;;;;;0.57;57.81;102935.00;5090794;28;20044;-63
2024/01/08 00:44:21;;;;;;;9.73;8.30;;;;;;;0.56;57.48;102939.63;5090691;28;20035;-63
2024/01/08 00:46:47;;;;;;;11.63;10.13;;;;;;;0.47;57.14;102937.69;5087715;28;20078;-63
2024/01/08 00:49:12;;;;;;;12.77;11.15;;;;;;;0.48;57.25;102931.22;5091697;28;20030;-63
2024/01/08 00:51:37;;;;;;;14.68;11.07;;;;;;;0.41;57.52;102932.78;5089729;28;20552;-63
2024/01/08 00:54:03;;;;;;;16.80;12.05;;;;;;;0.37;57.64;102934.91;5091123;28;20024;-63
2024/01/08 00:56:28;;;;;;;17.75;13.30;;;;;;;0.31;57.75;102931.84;5065872;28;20059;-63
2024/01/08 00:58:54;;;;;;;14.23;12.48;;;;;;;0.34;57.86;102926.09;5070310;28;20078;-63
2024/01/08 01:01:20;;;;;;;16.48;12.93;;;;;;;0.40;57.71;102931.06;5069749;28;20036;-63
2024/01/08 01:03:45;;;;;;;16.70;13.68;;;;;;;0.46;57.81;102931.34;5079746;28;20043;-63
2024/01/08 01:06:11;;;;;;;19.90;14.20;;;;;;;0.47;57.78;102924.00;5089791;28;20095;-64
2024/01/08 01:08:36;;;;;;;17.88;14.60;;;;;;;0.49;57.80;102933.81;5090576;28;20039;-63
2024/01/08 01:11:02;;;;;;;19.58;15.32;;;;;;;0.53;57.21;102931.69;5090991;28;20032;-63
2024/01/08 01:13:28;;;;;;;25.95;17.50;;;;;;;0.54;57.44;102941.59;5070835;28;20029;-64
2024/01/08 01:15:53;;;;;;;27.33;19.13;;;;;;;0.59;57.73;102943.91;5083715;28;20464;-64
2024/01/08 01:18:21;;;;;;;31.30;21.38;;;;;;;0.59;57.67;102943.91;5090926;28;20031;-64
2024/01/08 01:20:47;;;;;;;29.98;20.75;;;;;;;0.55;58.17;102934.25;5090138;28;20035;-64
2024/01/08 01:23:13;;;;;;;29.10;20.88;;;;;;;0.53;57.80;102937.16;5090763;28;20036;-64
2024/01/08 01:25:38;;;;;;;33.10;21.50;;;;;;;0.52;57.94;102935.44;5090088;28;20024;-64
2024/01/08 01:28:03;;;;;;;26.77;18.27;;;;;;;0.52;58.06;102934.56;5090705;28;20038;-64
2024/01/08 01:30:29;;;;;;;21.83;17.27;;;;;;;0.51;57.48;102938.28;5072246;28;20044;-64
2024/01/08 01:32:57;;;;;;;18.55;15.07;;;;;;;0.55;57.17;102947.94;5065113;28;20032;-64
2024/01/08 01:35:22;;;;;;;17.67;13.60;;;;;;;0.57;56.44;102938.59;5080724;28;20058;-64
2024/01/08 01:37:47;;;;;;;16.92;12.40;;;;;;;0.59;56.17;102943.91;5074141;28;20024;-64
2024/01/08 01:40:16;;;;;;;13.13;11.40;;;;;;;0.56;55.78;102938.75;5083640;28;20072;-64
2024/01/08 01:42:42;;;;;;;13.95;11.13;;;;;;;0.57;55.48;102944.06;5048294;28;20028;-64
2024/01/08 01:45:07;;;;;;;12.70;10.63;;;;;;;0.56;55.24;102939.63;5065519;28;20037;-64
2024/01/08 01:47:36;;;;;;;13.32;11.20;;;;;;;0.58;55.80;102937.59;5067269;28;20452;-64
2024/01/08 01:50:01;;;;;;;12.05;10.38;;;;;;;0.62;56.03;102935.47;5055301;28;20044;-64
2024/01/08 01:52:27;;;;;;;14.10;10.45;;;;;;;0.64;55.98;102937.06;5064034;28;20060;-64
2024/01/08 01:54:53;;;;;;;12.45;10.40;;;;;;;0.60;55.11;102940.22;5066522;28;20105;-64
2024/01/08 01:57:19;;;;;;;14.52;11.10;;;;;;;0.60;55.28;102932.88;5069521;28;20093;-64
2024/01/08 01:59:45;;;;;;;11.48;10.27;;;;;;;0.59;55.69;102943.91;5051460;28;20045;-64
2024/01/08 02:02:13;;;;;;;12.90;10.77;;;;;;;0.60;55.59;102940.22;5061174;28;20063;-64
2024/01/08 02:04:45;;;;;;;11.20;10.13;;;;;;;0.64;55.46;102942.53;5057923;28;20473;-64
2024/01/08 02:07:10;;;;;;;11.00;9.85;;;;;;;0.69;55.77;102942.97;5056519;28;20036;-64
2024/01/08 02:09:37;;;;;;;11.75;9.52;;;;;;;0.68;55.25;102946.72;5060609;28;20021;-64
2024/01/08 02:12:02;;;;;;;11.10;9.65;;;;;;;0.65;55.24;102955.19;5049257;28;20464;-64
2024/01/08 02:14:27;;;;;;;10.45;9.30;;;;;;;0.66;55.97;102945.97;5059915;28;20139;-64
2024/01/08 02:16:53;;;;;;;10.25;9.25;;;;;;;0.66;56.14;102945.97;5071268;28;20032;-64
2024/01/08 02:19:18;;;;;;;9.85;8.85;;;;;;;0.68;56.01;102952.19;5060294;28;20071;-64
2024/01/08 02:21:43;;;;;;;10.07;9.05;;;;;;;0.70;55.83;102952.91;5059964;28;20036;-65
2024/01/08 02:24:09;;;;;;;8.82;8.00;;;;;;;0.70;56.10;102950.16;5059683;28;20120;-65
2024/01/08 02:26:36;;;;;;;8.70;7.75;;;;;;;0.58;55.88;102951.25;5070425;28;20021;-64
2024/01/08 02:29:01;;;;;;;7.40;6.70;;;;;;;0.46;56.00;102949.63;5056813;28;20028;-64
2024/01/08 02:31:28;;;;;;;8.18;7.40;;;;;;;0.46;56.81;102952.34;5052144;28;20418;-64
2024/01/08 02:33:53;;;;;;;7.35;6.75;;;;;;;0.43;56.76;102963.53;5053252;28;20395;-64
2024/01/08 02:36:18;;;;;;;7.82;7.13;;;;;;;0.46;56.51;102955.06;5051518;28;20029;-64
2024/01/08 02:38:43;;;;;;;7.40;6.70;;;;;;;0.44;56.72;102960.69;5055968;28;20033;-64
2024/01/08 02:41:09;;;;;;;7.53;6.93;;;;;;;0.39;56.23;102964.81;5066371;28;20054;-64
2024/01/08 02:43:34;;;;;;;7.25;6.63;;;;;;;0.39;56.27;102960.25;5092171;28;20028;-64
2024/01/08 02:45:59;;;;;;;6.80;6.20;;;;;;;0.38;56.31;102965.81;5093278;28;20107;-64
2024/01/08 02:48:25;;;;;;;7.97;6.70;;;;;;;0.35;55.85;102972.41;5092347;28;20142;-63
2024/01/08 02:50:50;;;;;;;8.68;6.47;;;;;;;0.36;56.32;102973.28;5071071;28;20032;-64
2024/01/08 02:53:15;;;;;;;7.65;6.65;;;;;;;0.31;56.31;102975.53;5062508;28;20036;-63
2024/01/08 02:55:40;;;;;;;7.45;6.85;;;;;;;0.31;56.39;102976.41;5092438;28;20040;-64
2024/01/08 02:58:07;;;;;;;7.55;6.85;;;;;;;0.22;55.94;102996.34;5092493;28;20035;-63
2024/01/08 03:00:35;;;;;;;7.05;6.35;;;;;;;0.11;56.46;102980.88;5082757;28;20386;-64
2024/01/08 03:03:00;;;;;;;8.60;7.00;;;;;;;0.02;56.62;102989.00;5093082;28;20027;-63
2024/01/08 03:05:26;;;;;;;7.18;6.47;;;;;;;-0.01;57.45;102984.66;5092024;28;20035;-63
2024/01/08 03:07:51;;;;;;;6.97;6.35;;;;;;;-0.01;57.16;102987.38;5093193;28;20056;-64
2024/01/08 03:10:16;;;;;;;8.00;7.20;;;;;;;-0.07;57.29;102991.53;5079692;28;20033;-64
2024/01/08 03:12:41;;;;;;;8.23;7.43;;;;;;;-0.03;57.73;102981.22;5070785;28;20033;-63
2024/01/08 03:15:07;;;;;;;10.00;7.20;;;;;;;-0.01;57.85;102984.66;5075850;28;20020;-63
2024/01/08 03:17:32;;;;;;;7.72;7.03;;;;;;;0.02;57.56;102980.81;5092923;28;20028;-63
2024/01/08 03:20:01;;;;;;;8.10;7.20;;;;;;;0.02;57.25;102981.66;5092228;28;20463;-63
2024/01/08 03:22:26;;;;;;;8.02;7.03;;;;;;;0.02;57.27;102976.22;5092916;28;20056;-63
2024/01/08 03:24:51;;;;;;;9.00;7.65;;;;;;;0.01;57.12;102974.47;5092465;28;20096;-63
2024/01/08 03:27:16;;;;;;;8.90;6.65;;;;;;;0.05;57.66;102975.09;5091948;28;20036;-63
2024/01/08 03:29:42;;;;;;;8.07;7.25;;;;;;;0.08;57.53;102978.41;5076732;28;20108;-64
2024/01/08 03:32:09;;;;;;;8.35;7.55;;;;;;;0.11;57.69;102971.81;5072016;28;20383;-63
2024/01/08 03:34:34;;;;;;;7.97;7.18;;;;;;;0.15;57.69;102979.59;5088842;28;20032;-63
2024/01/08 03:37:00;;;;;;;8.23;7.35;;;;;;;0.22;58.27;102978.06;5092266;28;20364;-63
2024/01/08 03:39:25;;;;;;;8.75;7.85;;;;;;;0.23;58.03;102973.47;5091617;28;20103;-63
2024/01/08 03:41:50;;;;;;;9.52;7.30;;;;;;;0.24;57.79;102983.44;5091901;28;20060;-64
2024/01/08 03:44:16;;;;;;;8.52;7.63;;;;;;;0.23;58.05;102981.66;5087435;28;20027;-63
2024/01/08 03:46:42;;;;;;;8.40;7.18;;;;;;;0.24;58.07;102986.16;5087820;28;20035;-63
2024/01/08 03:49:07;;;;;;;8.43;7.57;;;;;;;0.25;58.36;102993.34;5074135;28;20036;-64
2024/01/08 03:51:34;;;;;;;8.27;7.47;;;;;;;0.20;58.33;102987.41;5078838;28;20047;-64
2024/01/08 03:54:00;;;;;;;7.68;6.93;;;;;;;0.22;58.29;102988.13;5090871;28;20036;-64
2024/01/08 03:56:25;;;;;;;8.45;7.65;;;;;;;0.23;58.45;102990.72;5091721;28;20093;-64
2024/01/08 03:58:50;;;;;;;7.95;7.15;;;;;;;0.27;58.03;102985.00;5091888;28;20036;-64
2024/01/08 04:01:16;;;;;;;8.88;7.53;;;;;;;0.30;58.06;102987.47;5089208;28;20032;-63
2024/01/08 04:03:41;;;;;;;8.18;7.22;;;;;;;0.31;58.14;102989.19;5090885;28;20103;-64
2024/01/08 04:06:07;;;;;;;8.57;7.68;;;;;;;0.33;58.14;102995.41;5077781;28;20020;-63
2024/01/08 04:08:35;;;;;;;12.43;7.85;;;;;;;0.36;57.79;102995.16;5078069;28;20047;-64
2024/01/08 04:11:00;;;;;;;8.73;7.45;;;;;;;0.35;57.69;102990.66;5092063;28;20028;-64
2024/01/08 04:13:25;;;;;;;8.82;7.50;;;;;;;0.36;58.00;102984.22;5091770;28;20394;-64
2024/01/08 04:15:51;;;;;;;8.80;7.43;;;;;;;0.38;57.53;102987.66;5072680;28;20448;-64
2024/01/08 04:18:16;;;;;;;7.65;6.88;;;;;;;0.37;58.12;102994.13;5087733;28;20036;-64
2024/01/08 04:20:41;;;;;;;7.80;7.03;;;;;;;0.24;57.85;102991.63;5091501;28;20035;-64
2024/01/08 04:23:07;;;;;;;8.32;7.53;;;;;;;0.22;58.04;102986.28;5080802;28;20478;-63
2024/01/08 04:25:33;;;;;;;8.60;6.97;;;;;;;0.21;58.39;102989.16;5072531;28;20062;-64
2024/01/08 04:27:58;;;;;;;8.30;7.47;;;;;;;0.24;58.20;102987.03;5071162;28;20396;-64
2024/01/08 04:30:23;;;;;;;7.72;6.93;;;;;;;0.26;58.38;102989.59;5087295;28;20107;-64
2024/01/08 04:32:49;;;;;;;7.97;7.18;;;;;;;0.25;57.87;102987.88;5091133;28;20036;-64
2024/01/08 04:35:14;;;;;;;8.25;7.32;;;;;;;0.26;58.37;102989.59;5072105;28;20028;-63
2024/01/08 04:37:40;;;;;;;8.68;7.78;;;;;;;0.30;58.09;102993.81;5089524;28;20063;-64
2024/01/08 04:40:07;;;;;;;8.27;6.78;;;;;;;0.32;58.30;102986.34;5090678;28;20075;-63
2024/01/08 04:42:32;;;;;;;7.22;6.45;;;;;;;0.36;58.71;102986.97;5069790;28;20546;-63
2024/01/08 04:44:57;;;;;;;10.15;6.93;;;;;;;0.37;57.72;102992.28;5079712;28;20116;-63
2024/01/08 04:47:23;;;;;;;8.20;7.40;;;;;;;0.33;57.89;102981.75;5086307;28;20039;-63
2024/01/08 04:49:48;;;;;;;7.53;6.68;;;;;;;0.32;57.90;102980.88;5060170;28;20378;-63
2024/01/08 04:52:13;;;;;;;7.97;6.88;;;;;;;0.32;58.34;102989.09;5054315;28;20021;-63
2024/01/08 04:54:41;;;;;;;7.80;6.47;;;;;;;0.28;58.33;102984.88;5065992;28;20156;-63
2024/01/08 04:57:07;;;;;;;10.50;7.00;;;;;;;0.29;58.02;102983.88;5051980;28;20110;-63
2024/01/08 04:59:32;;;;;;;9.68;6.93;;;;;;;0.31;58.09;102994.66;5057256;28;20020;-63
2024/01/08 05:01:57;;;;;;;7.13;6.40;;;;;;;0.30;57.50;102985.59;5060957;28;20472;-63
2024/01/08 05:04:22;;;;;;;8.40;7.15;;;;;;;0.30;58.23;102992.94;5056717;28;20058;-63
2024/01/08 05:06:48;;;;;;;8.77;6.47;;;;;;;0.27;57.93;102985.88;5062134;28;20387;-63
2024/01/08 05:09:14;;;;;;;7.45;6.72;;;;;;;0.30;57.95;102982.88;5056769;28;20048;-63
2024/01/08 05:11:39;;;;;;;9.13;7.07;;;;;;;0.33;57.99;102985.34;5069453;28;20469;-64
2024/01/08 05:14:05;;;;;;;7.82;7.13;;;;;;;0.31;58.45;102986.47;5070996;28;20045;-64
2024/01/08 05:16:30;;;;;;;7.82;7.00;;;;;;;0.32;58.69;102988.22;5063153;28;20043;-64
2024/01/08 05:18:55;;;;;;;9.50;7.30;;;;;;;0.34;58.54;102983.47;5049517;28;20040;-64
2024/01/08 05:21:20;;;;;;;7.35;6.65;;;;;;;0.27;58.57;102979.53;5059902;28;20025;-64
2024/01/08 05:23:46;;;;;;;7.43;6.57;;;;;;;0.30;58.76;102979.28;5063589;28;20108;-64
2024/01/08 05:26:11;;;;;;;7.78;6.68;;;;;;;0.20;59.12;102982.81;5058375;28;20066;-64
2024/01/08 05:28:37;;;;;;;8.07;7.18;;;;;;;0.26;59.28;102981.41;5052836;28;20082;-64
2024/01/08 05:31:02;;;;;;;10.13;7.55;;;;;;;0.19;59.64;102972.88;5064770;28;20025;-64
2024/01/08 05:33:28;;;;;;;7.55;6.72;;;;;;;0.21;59.66;102975.50;5060866;28;20029;-64
2024/01/08 05:35:53;;;;;;;8.00;7.20;;;;;;;0.22;60.18;102983.53;5068204;28;20104;-64
2024/01/08 05:38:19;;;;;;;8.35;7.20;;;;;;;0.24;60.04;102976.09;5054957;28;20032;-64
2024/01/08 05:40:44;;;;;;;9.60;7.63;;;;;;;0.27;60.22;102976.81;5063369;28;20449;-64
2024/01/08 05:43:09;;;;;;;9.05;7.47;;;;;;;0.24;60.01;102983.44;5067452;28;20024;-64
2024/01/08 05:45:35;;;;;;;8.55;7.65;;;;;;;0.26;60.71;102983.28;5074531;28;20044;-64
2024/01/08 05:48:00;;;;;;;9.35;7.50;;;;;;;0.30;60.54;102979.28;5072842;28;20468;-64
2024/01/08 05:50:28;;;;;;;9.95;7.88;;;;;;;0.30;60.92;102979.28;5064488;28;20039;-64
2024/01/08 05:52:54;;;;;;;9.23;8.10;;;;;;;0.28;60.84;102984.88;5054494;28;20028;-64
2024/01/08 05:55:20;;;;;;;9.48;7.90;;;;;;;0.30;60.54;102977.41;5068351;28;20043;-64
2024/01/08 05:57:46;;;;;;;9.80;7.63;;;;;;;0.31;60.63;102975.53;5053240;28;20114;-64
2024/01/08 06:00:12;;;;;;;9.05;8.15;;;;;;;0.31;61.04;102981.88;5068955;28;20086;-64
2024/01/08 06:02:38;;;;;;;10.57;8.02;;;;;;;0.35;60.88;102979.75;5057742;28;20436;-64
2024/01/08 06:05:06;;;;;;;10.27;8.82;;;;;;;0.31;61.10;102975.53;5072515;28;20651;-64
2024/01/08 06:07:32;;;;;;;10.25;7.97;;;;;;;0.31;61.60;102981.00;5073526;28;20181;-64
2024/01/08 06:09:57;;;;;;;11.88;8.25;;;;;;;0.33;60.97;102979.88;5089627;28;20511;-64
2024/01/08 06:12:22;;;;;;;9.63;8.35;;;;;;;0.32;61.25;102977.28;5057308;28;20033;-64
2024/01/08 06:14:49;;;;;;;9.95;8.68;;;;;;;0.33;61.65;102979.03;5053544;28;20021;-64
2024/01/08 06:17:14;;;;;;;9.45;8.25;;;;;;;0.34;61.94;102975.28;5053886;28;20029;-64
2024/01/08 06:19:40;;;;;;;11.40;8.65;;;;;;;0.36;61.58;102973.28;5091909;28;20514;-64
2024/01/08 06:22:05;;;;;;;11.70;9.50;;;;;;;0.39;61.86;102973.00;5079495;28;20038;-64
2024/01/08 06:24:30;;;;;;;10.88;9.20;;;;;;;0.42;61.80;102976.34;5062187;28;20025;-64
2024/01/08 06:26:56;;;;;;;10.25;8.70;;;;;;;0.42;61.62;102972.75;5054055;28;20506;-64
2024/01/08 06:29:22;;;;;;;9.63;8.63;;;;;;;0.45;62.02;102970.59;5082721;28;20028;-64
2024/01/08 06:31:47;;;;;;;10.07;8.50;;;;;;;0.46;62.17;102969.59;5053560;28;20037;-64
2024/01/08 06:34:13;;;;;;;10.18;9.07;;;;;;;0.49;62.04;102963.00;5053874;28;20029;-64
2024/01/08 06:36:39;;;;;;;11.85;9.50;;;;;;;0.52;61.98;102961.88;5054354;28;20025;-64
2024/01/08 06:39:05;;;;;;;11.25;8.95;;;;;;;0.53;61.97;102966.34;5053218;28;20033;-64
2024/01/08 06:41:30;;;;;;;11.10;9.32;;;;;;;0.48;62.11;102961.28;5057429;28;20053;-64
2024/01/08 06:43:56;;;;;;;11.18;9.27;;;;;;;0.51;61.71;102971.91;5036672;28;20121;-64
2024/01/08 06:46:21;;;;;;;11.77;9.20;;;;;;;0.53;61.81;102969.94;5035156;28;20087;-64
2024/01/08 06:48:46;;;;;;;10.63;9.02;;;;;;;0.47;61.96;102970.47;5032730;28;20036;-64
2024/01/08 06:51:11;;;;;;;11.23;9.25;;;;;;;0.42;61.91;102973.59;5032839;28;20112;-64
2024/01/08 06:53:37;;;;;;;14.73;9.57;;;;;;;0.38;62.22;102974.88;5035694;28;20037;-64
2024/01/08 06:56:02;;;;;;;10.60;9.40;;;;;;;0.40;62.82;102964.69;5033134;28;20113;-65
2024/01/08 06:58:28;;;;;;;10.80;9.63;;;;;;;0.41;62.37;102973.75;5045370;28;20053;-64
2024/01/08 07:00:53;;;;;;;11.52;8.60;;;;;;;0.38;62.88;102968.53;5041248;28;20025;-60
2024/01/08 07:03:18;;;;;;;10.25;8.80;;;;;;;0.34;62.47;102972.56;5047013;28;20025;-64
2024/01/08 07:05:44;;;;;;;12.40;10.05;;;;;;;0.32;62.83;102978.16;5044091;28;20025;-64
2024/01/08 07:08:09;;;;;;;10.88;9.32;;;;;;;0.26;63.56;102969.63;5052674;28;20029;-64
2024/01/08 07:10:35;;;;;;;11.60;9.43;;;;;;;0.30;63.20;102973.81;5052019;28;20025;-63
2024/01/08 07:13:00;;;;;;;11.57;9.43;;;;;;;0.29;63.18;102975.69;5052085;28;20031;-63
2024/01/08 07:15:43;;;;;;;12.23;9.27;;;;;;;0.33;63.51;102990.81;5037701;28;20029;-63
2024/01/08 07:18:09;;;;;;;12.10;10.80;;;;;;;0.26;62.94;102980.53;5045128;28;20033;-63
2024/01/08 07:20:36;;;;;;;11.25;9.90;;;;;;;0.26;63.64;102989.59;5039596;28;20120;-63
2024/01/08 07:23:02;;;;;;;13.75;10.38;;;;;;;0.26;63.61;102983.28;5042136;28;20025;-63
2024/01/08 07:25:27;;;;;;;11.32;9.95;;;;;;;0.30;63.52;102990.22;5035817;28;20530;-64
2024/01/08 07:27:53;;;;;;;12.95;10.73;;;;;;;0.30;63.90;102993.81;5051466;28;20687;-64
2024/01/08 07:30:18;;;;;;;14.18;11.32;;;;;;;0.25;63.88;102985.16;5039454;28;20396;-63
2024/01/08 07:32:43;;;;;;;11.00;9.80;;;;;;;0.32;63.99;102994.56;5039341;28;20535;-64
2024/01/08 07:35:08;;;;;;;14.40;10.15;;;;;;;0.30;63.79;102998.41;5041465;28;20025;-63
2024/01/08 07:37:34;;;;;;;13.10;10.02;;;;;;;0.28;63.70;103003.16;5042100;28;20035;-63
2024/01/08 07:39:59;;;;;;;13.40;10.43;;;;;;;0.28;63.63;102998.53;5034799;28;20070;-64
2024/01/08 07:42:24;;;;;;;13.88;10.82;;;;;;;0.28;64.01;103003.16;5054741;28;20037;-63
2024/01/08 07:44:49;;;;;;;12.75;10.15;;;;;;;0.28;64.04;102998.53;5066024;28;20115;-63
2024/01/08 07:47:15;;;;;;;13.63;10.85;;;;;;;0.30;64.30;103010.19;5058263;28;20029;-64
2024/01/08 07:49:40;;;;;;;13.40;9.98;;;;;;;0.33;64.29;103011.81;5067735;28;20025;-63
2024/01/08 07:52:06;;;;;;;12.30;9.88;;;;;;;0.36;64.16;103014.28;5056447;28;20032;-62
2024/01/08 07:54:31;;;;;;;12.48;10.30;;;;;;;0.39;63.84;103014.88;5055622;28;20115;-63
2024/01/08 07:56:56;;;;;;;11.07;9.90;;;;;;;0.40;64.01;103015.75;5064040;28;20024;-63
2024/01/08 07:59:21;;;;;;;13.63;10.50;;;;;;;0.36;63.96;103011.53;5065838;28;20025;-63
2024/01/08 08:01:47;;;;;;;13.32;10.77;;;;;;;0.31;63.89;103006.44;5054365;28;20025;-62
2024/01/08 08:04:13;;;;;;;10.77;9.65;;;;;;;0.34;63.76;103002.59;5057922;28;20037;-63
2024/01/08 08:06:38;;;;;;;13.23;10.38;;;;;;;0.38;63.99;103009.53;5067953;28;20035;-63
2024/01/08 08:09:03;;;;;;;16.40;10.00;;;;;;;0.54;66.74;103009.91;5056684;28;20048;-63
2024/01/08 08:11:29;;;;;;;12.63;9.82;;;;;;;0.56;65.08;103007.06;5062576;28;20523;-62
2024/01/08 08:13:54;;;;;;;11.50;9.23;;;;;;;0.59;63.46;103018.59;5057164;28;20392;-62
2024/01/08 08:16:20;;;;;;;12.98;9.02;;;;;;;0.62;62.91;103007.38;5059436;28;20081;-62
2024/01/08 08:18:45;;;;;;;11.13;9.85;;;;;;;0.62;63.01;103018.31;5054903;28;20067;-62
2024/01/08 08:21:11;;;;;;;12.35;9.32;;;;;;;0.61;62.87;103018.44;5056820;28;20052;-62
2024/01/08 08:23:36;;;;;;;11.18;9.05;;;;;;;0.57;62.64;103026.03;5063306;28;20036;-64
2024/01/08 08:26:02;;;;;;;12.88;9.45;;;;;;;0.60;62.84;103025.78;5066383;28;20174;-64
2024/01/08 08:28:28;;;;;;;11.73;8.70;;;;;;;0.59;62.19;103018.59;5049250;28;20110;-64
2024/01/08 08:30:53;;;;;;;9.80;8.80;;;;;;;0.56;62.32;103027.06;5056507;28;20028;-64
2024/01/08 08:33:18;;;;;;;11.18;9.02;;;;;;;0.57;61.99;103027.91;5056780;28;20029;-63
2024/01/08 08:35:43;;;;;;;9.52;8.05;;;;;;;0.57;61.97;103026.03;5056391;28;20029;-66
2024/01/08 08:38:09;;;;;;;9.80;8.77;;;;;;;0.58;62.14;103016.84;5057732;28;20032;-63
2024/01/08 08:40:34;;;;;;;9.55;8.55;;;;;;;0.53;61.98;103030.06;5053812;28;20092;-64
2024/01/08 08:42:59;;;;;;;9.63;8.52;;;;;;;0.54;62.37;103029.03;5051663;28;20020;-64
2024/01/08 08:45:25;;;;;;;9.82;8.70;;;;;;;0.51;61.92;103028.44;5060041;28;20483;-63
2024/01/08 08:47:50;;;;;;;9.18;8.27;;;;;;;0.50;62.10;103027.56;5054617;28;20045;-58
2024/01/08 08:50:15;;;;;;;9.13;8.10;;;;;;;0.52;61.82;103031.06;5057466;28;20036;-59
2024/01/08 08:52:43;;;;;;;9.13;8.07;;;;;;;0.49;62.30;103032.19;5074219;28;20145;-62
2024/01/08 08:55:09;;;;;;;9.70;8.70;;;;;;;0.43;62.30;103030.00;5058651;28;20081;-63
2024/01/08 08:57:36;;;;;;;10.32;8.00;;;;;;;0.36;62.41;103030.66;5063250;28;20024;-62
2024/01/08 09:00:01;;;;;;;11.13;8.07;;;;;;;0.35;62.34;103035.22;5051754;28;20480;-62
2024/01/08 09:02:26;;;;;;;9.65;8.55;;;;;;;0.35;62.37;103035.22;5057678;28;20066;-62
2024/01/08 09:04:53;;;;;;;10.50;7.88;;;;;;;0.37;62.49;103027.78;5066210;28;20391;-63
2024/01/08 09:07:22;;;;;;;9.35;8.32;;;;;;;0.31;62.94;103031.03;5055016;28;20032;-63
2024/01/08 09:09:47;;;;;;;8.95;8.00;;;;;;;0.36;62.83;103031.53;5058146;28;20066;-63
2024/01/08 09:12:13;;;;;;;10.20;8.48;;;;;;;0.34;63.04;103030.78;5064082;28;20033;-65
2024/01/08 09:14:38;;;;;;;8.50;7.70;;;;;;;0.37;63.35;103041.44;5059175;28;20051;-57
2024/01/08 09:17:04;;;;;;;10.25;7.88;;;;;;;0.34;62.95;103040.84;5053213;28;20040;-60
2024/01/08 09:19:29;;;;;;;9.40;8.40;;;;;;;0.28;63.47;103047.72;5057481;28;20358;-61
2024/01/08 09:21:54;;;;;;;10.45;8.23;;;;;;;0.32;64.05;103053.78;5063201;28;20028;-63
2024/01/08 09:24:19;;;;;;;12.18;8.55;;;;;;;0.34;63.06;103052.63;5062767;28;20032;-62
2024/01/08 09:26:45;;;;;;;9.82;8.40;;;;;;;0.41;64.62;103044.78;5053928;28;20032;-64
2024/01/08 09:29:11;;;;;;;10.80;7.80;;;;;;;0.41;63.47;103048.38;5064550;28;20039;-64
2024/01/08 09:31:37;;;;;;;8.95;7.95;;;;;;;0.45;63.70;103049.84;5058051;28;20024;-63
2024/01/08 09:34:05;;;;;;;10.90;8.50;;;;;;;0.45;63.45;103060.78;5058607;28;20055;-62
2024/01/08 09:36:30;;;;;;;8.88;7.93;;;;;;;0.45;63.58;103057.19;5046668;28;20041;-62
2024/01/08 09:38:55;;;;;;;11.13;8.48;;;;;;;0.43;63.06;103064.63;5051303;28;20492;-62
2024/01/08 09:41:21;;;;;;;10.57;8.52;;;;;;;0.42;63.64;103060.16;5059931;28;20064;-62
2024/01/08 09:43:47;;;;;;;8.98;8.10;;;;;;;0.41;64.36;103062.03;5069549;28;20476;-63
2024/01/08 09:46:18;;;;;;;12.50;8.25;;;;;;;0.47;64.80;103063.34;5062866;28;20033;-62
2024/01/08 09:48:45;;;;;;;11.00;8.87;;;;;;;0.43;65.43;103064.63;5054326;28;20032;-64
2024/01/08 09:51:10;;;;;;;10.10;8.52;;;;;;;0.50;65.82;103068.56;5076962;28;20396;-62
2024/01/08 09:53:36;;;;;;;9.82;8.48;;;;;;;0.57;66.36;103075.25;5055306;28;20028;-66
2024/01/08 09:56:03;;;;;;;9.73;8.73;;;;;;;0.55;66.15;103065.44;5060682;28;20036;-64
2024/01/08 09:58:28;;;;;;;10.25;8.55;;;;;;;0.51;66.28;103072.16;5055181;28;20500;-66
2024/01/08 10:00:54;;;;;;;10.90;8.52;;;;;;;0.47;66.86;103068.81;5065033;28;20059;-63
2024/01/08 10:03:19;;;;;;;12.68;8.60;;;;;;;0.48;66.59;103070.56;5059795;28;20112;-62
2024/01/08 10:05:45;;;;;;;9.25;8.35;;;;;;;0.46;66.50;103081.63;5051764;28;20070;-62
2024/01/08 10:08:10;;;;;;;10.18;8.40;;;;;;;0.46;66.80;103072.56;5055874;28;20257;-62
2024/01/08 10:10:36;;;;;;;8.98;8.13;;;;;;;0.44;66.25;103082.78;5057954;28;20033;-62
2024/01/08 10:13:02;;;;;;;10.15;9.15;;;;;;;0.45;66.48;103079.03;5052562;28;20100;-64
2024/01/08 10:15:27;;;;;;;11.40;8.90;;;;;;;0.39;65.77;103074.09;5059374;28;20186;-64
2024/01/08 10:17:55;;;;;;;10.27;9.13;;;;;;;0.35;65.35;103069.88;5055065;28;20662;-64
2024/01/08 10:20:20;;;;;;;9.88;8.88;;;;;;;0.35;65.86;103067.16;5049093;28;20468;-65
2024/01/08 10:22:47;;;;;;;10.55;8.70;;;;;;;0.32;65.19;103062.84;5055236;28;20032;-65
2024/01/08 10:25:21;;;;;;;11.07;8.98;;;;;;;0.33;64.89;103067.28;5056028;28;20025;-64
2024/01/08 10:27:46;;;;;;;10.32;8.82;;;;;;;0.32;64.55;103072.91;5054040;28;20029;-63
2024/01/08 10:30:12;;;;;;;10.23;8.25;;;;;;;0.34;64.80;103068.16;5058119;28;20029;-62
2024/01/08 10:32:37;;;;;;;11.20;8.80;;;;;;;0.37;64.84;103051.50;5059379;28;20052;-63
2024/01/08 10:35:04;;;;;;;9.48;8.50;;;;;;;0.45;65.03;103048.97;5052826;28;20029;-64
2024/01/08 10:37:29;;;;;;;8.85;8.00;;;;;;;0.55;64.72;103052.66;5064021;28;20051;-62
2024/01/08 10:39:56;;;;;;;9.55;8.55;;;;;;;0.65;64.92;103050.84;5070529;28;20044;-63
2024/01/08 10:42:22;;;;;;;9.65;8.68;;;;;;;0.69;64.49;103046.84;5058760;28;20040;-63
2024/01/08 10:44:47;;;;;;;9.48;8.15;;;;;;;0.72;64.16;103045.72;5054931;28;20021;-63
2024/01/08 10:47:19;;;;;;;9.68;8.68;;;;;;;0.72;63.14;103043.84;5058418;28;20110;-63
2024/01/08 10:49:55;;;;;;;9.25;8.32;;;;;;;0.72;63.43;103034.78;5061415;28;20024;-63
2024/01/08 10:52:32;;;;;;;9.52;8.00;;;;;;;0.73;63.48;103037.38;5059589;28;20025;-62
2024/01/08 10:55:00;;;;;;;9.50;8.50;;;;;;;0.68;63.41;103036.91;5068488;28;20766;-63
2024/01/08 10:57:49;;;;;;;9.18;8.27;;;;;;;0.78;63.21;103031.47;5064766;28;20041;-63
2024/01/08 11:00:14;;;;;;;10.90;7.97;;;;;;;0.82;61.91;103034.81;5064698;28;20448;-63
2024/01/08 11:02:40;;;;;;;8.70;7.75;;;;;;;0.88;61.86;103034.28;5065757;28;20040;-62
2024/01/08 11:05:09;;;;;;;9.95;7.85;;;;;;;0.91;61.29;103042.22;5060604;28;20468;-62
2024/01/08 11:07:37;;;;;;;9.48;7.60;;;;;;;0.88;60.09;103039.75;5059762;28;20025;-63
2024/01/08 11:10:07;;;;;;;8.57;7.60;;;;;;;0.76;60.08;103029.91;5057653;28;20049;-62
2024/01/08 11:12:36;;;;;;;8.23;7.30;;;;;;;0.73;60.71;103033.75;5056267;28;20017;-62
2024/01/08 11:15:05;;;;;;;8.25;7.45;;;;;;;0.72;60.18;103034.78;5058773;28;20012;-63
2024/01/08 11:17:32;;;;;;;10.43;8.18;;;;;;;0.71;61.02;103033.91;5069555;28;20052;-62
2024/01/08 11:19:58;;;;;;;8.77;7.57;;;;;;;0.70;59.73;103018.50;5062829;28;20041;-62
2024/01/08 11:22:23;;;;;;;8.93;7.70;;;;;;;0.64;58.79;103029.13;5064661;28;20033;-61